Time;durP1;ratioP1;P1;durP2;ratioP2;P2;SDS_P1;SDS_P2;PMS_P1;PMS_P2;Temp;Humidity;BMP_temperature;BMP_pressure;BME280_temperature;BME280_humidity;BME280_pressure;Samples;Min_cycle;Max_cycle;Signal;HPM_P1;HPM_P2
2021/06/07 00:00:10;;;;;;;;;;;13.40;99.90;;;;;;4955348;29;19926;-96
2021/06/07 00:03:02;;;;;;;;;;;13.30;99.90;;;;;;4958489;29;19958;-96
2021/06/07 00:06:16;;;;;;;;;;;13.40;99.90;;;;;;4907150;29;19956;-96
2021/06/07 00:12:10;;;;;;;;;;;13.50;99.90;;;;;;4996096;22;19945;-96
2021/06/07 00:14:53;;;;;;;;;;;13.50;99.90;;;;;;5010245;28;19913;-95
2021/06/07 00:17:35;;;;;;;;;;;13.60;99.90;;;;;;5175592;23;19970;-94
2021/06/07 00:20:41;;;;;;;;;;;13.60;99.90;;;;;;5038811;28;19932;-94
2021/06/07 07:26:33;;;;;;;;;;;21.70;99.90;;;;;;1134127;23;20133;-89
2021/06/07 07:29:01;;;;;;;;;;;21.70;99.90;;;;;;4936391;29;19927;-94
2021/06/07 07:31:28;;;;;;;;;;;21.70;99.90;;;;;;4922018;29;19927;-93
2021/06/07 07:33:55;;;;;;;;;;;21.60;99.90;;;;;;4922378;29;19986;-91
2021/06/07 07:36:21;;;;;;;;;;;21.60;99.90;;;;;;4921544;29;20382;-91
2021/06/07 07:38:48;;;;;;;;;;;21.60;99.90;;;;;;4921209;29;20422;-90
2021/06/07 07:41:23;;;;;;;;;;;21.40;99.90;;;;;;4924803;29;20277;-96
2021/06/07 07:47:41;;;;;;;;;;;21.20;99.90;;;;;;4996924;28;20368;-92
2021/06/07 07:50:30;;;;;;;;;;;20.90;99.90;;;;;;5079189;23;19941;-96
2021/06/07 07:53:11;;;;;;;;;;;20.70;99.90;;;;;;4976297;28;19977;-96
2021/06/07 07:55:39;;;;;;;;;;;20.60;99.90;;;;;;4970237;28;20013;-91
2021/06/07 07:58:10;;;;;;;;;;;20.80;99.90;;;;;;4983728;28;20000;-92
2021/06/07 08:00:38;;;;;;;;;;;20.80;99.90;;;;;;4964908;28;19926;-89
2021/06/07 08:03:05;;;;;;;;;;;20.80;99.90;;;;;;4964338;28;19926;-92
2021/06/07 08:05:32;;;;;;;;;;;20.80;99.90;;;;;;4964391;28;20395;-89
2021/06/07 08:07:59;;;;;;;;;;;20.70;99.90;;;;;;4963253;28;20354;-90
2021/06/07 08:10:27;;;;;;;;;;;20.70;99.90;;;;;;4962969;28;20338;-90
2021/06/07 08:12:54;;;;;;;;;;;20.70;99.90;;;;;;4963161;28;19933;-89
2021/06/07 08:15:21;;;;;;;;;;;20.60;99.90;;;;;;4963262;28;19934;-89
2021/06/07 08:17:48;;;;;;;;;;;20.50;99.90;;;;;;4962873;28;19926;-90
2021/06/07 08:20:17;;;;;;;;;;;20.60;99.90;;;;;;4981692;28;19926;-90
2021/06/07 08:22:46;;;;;;;;;;;20.80;99.90;;;;;;4981551;28;19914;-90
2021/06/07 08:25:13;;;;;;;;;;;20.90;99.90;;;;;;4979733;28;19972;-90
2021/06/07 08:27:40;;;;;;;;;;;21.00;99.90;;;;;;4962611;28;20384;-89
2021/06/07 08:30:07;;;;;;;;;;;20.90;99.90;;;;;;4962929;28;20539;-89
2021/06/07 08:32:35;;;;;;;;;;;21.00;99.90;;;;;;4962575;28;19934;-89
2021/06/07 08:35:03;;;;;;;;;;;21.20;99.90;;;;;;4962410;28;19926;-90
2021/06/07 08:37:30;;;;;;;;;;;21.20;99.90;;;;;;4985272;28;19973;-96
2021/06/07 08:39:58;;;;;;;;;;;21.30;99.90;;;;;;4950890;28;19958;-96
2021/06/07 08:42:27;;;;;;;;;;;21.40;99.90;;;;;;4970942;28;19926;-96
2021/06/07 08:53:07;;;;;;;;;;;21.30;99.90;;;;;;5889716;23;19926;-94
2021/06/07 08:55:35;;;;;;;;;;;21.40;99.90;;;;;;4985161;28;19926;-92
2021/06/07 08:58:04;;;;;;;;;;;21.60;99.90;;;;;;5004863;28;19996;-93
2021/06/07 09:00:33;;;;;;;;;;;21.70;99.90;;;;;;5020513;28;19933;-92
2021/06/07 09:03:13;;;;;;;;;;;21.70;99.90;;;;;;5017180;28;19932;-92
2021/06/07 09:05:44;;;;;;;;;;;21.90;99.90;;;;;;5006300;28;19933;-93
2021/06/07 09:08:14;;;;;;;;;;;22.10;99.90;;;;;;5000080;28;19973;-92
2021/06/07 09:16:41;;;;;;;;;;;23.00;99.90;;;;;;4999973;28;19968;-92
2021/06/07 09:19:16;;;;;;;;;;;23.20;99.90;;;;;;5000626;28;19988;-93
2021/06/07 09:21:45;;;;;;;;;;;23.40;99.90;;;;;;5001649;28;19930;-95
2021/06/07 09:24:13;;;;;;;;;;;23.20;99.90;;;;;;4981728;28;20313;-95
2021/06/07 09:26:42;;;;;;;;;;;23.20;99.90;;;;;;4981051;28;19926;-95
2021/06/07 09:29:18;;;;;;;;;;;23.10;99.90;;;;;;4982160;28;19926;-94
2021/06/07 09:31:50;;;;;;;;;;;23.10;99.90;;;;;;4981312;28;19972;-94
2021/06/07 09:34:26;;;;;;;;;;;22.80;98.90;;;;;;4981672;28;19926;-94
2021/06/07 09:36:53;;;;;;;;;;;23.00;99.90;;;;;;4980409;28;19976;-95
2021/06/07 09:39:25;;;;;;;;;;;23.20;99.60;;;;;;4981098;28;19926;-95
2021/06/07 09:42:08;;;;;;;;;;;23.30;97.40;;;;;;4999824;28;20282;-95
2021/06/07 09:44:35;;;;;;;;;;;23.30;97.90;;;;;;4981004;28;19933;-95
2021/06/07 09:47:20;;;;;;;;;;;23.10;97.90;;;;;;4981366;28;19953;-95
2021/06/07 09:50:04;;;;;;;;;;;23.10;99.90;;;;;;4980933;28;19933;-95
2021/06/07 09:52:43;;;;;;;;;;;23.20;96.40;;;;;;4981013;28;19926;-95
2021/06/07 09:55:18;;;;;;;;;;;23.10;96.50;;;;;;4981245;28;19980;-94
2021/06/07 09:57:56;;;;;;;;;;;23.00;96.70;;;;;;4981312;28;20064;-93
2021/06/07 10:00:38;;;;;;;;;;;22.80;98.20;;;;;;4980707;28;19985;-93
2021/06/07 10:03:14;;;;;;;;;;;23.10;98.60;;;;;;4981598;28;19929;-94
2021/06/07 10:05:50;;;;;;;;;;;23.00;98.20;;;;;;4991869;28;19946;-93
2021/06/07 10:08:18;;;;;;;;;;;23.00;98.30;;;;;;5002450;28;19924;-95
2021/06/07 10:10:45;;;;;;;;;;;23.20;98.20;;;;;;5000731;28;19972;-96
2021/06/07 10:13:13;;;;;;;;;;;23.10;97.70;;;;;;4982396;28;19968;-96
2021/06/07 10:15:40;;;;;;;;;;;23.00;98.00;;;;;;4983566;28;19926;-96
2021/06/07 10:18:09;;;;;;;;;;;23.00;99.90;;;;;;4982619;28;20392;-96
2021/06/07 10:20:47;;;;;;;;;;;22.80;99.90;;;;;;4985003;28;19925;-95
2021/06/07 10:23:22;;;;;;;;;;;22.50;99.90;;;;;;5001871;28;19925;-96
2021/06/07 10:25:51;;;;;;;;;;;22.30;99.90;;;;;;4985022;28;19926;-96
2021/06/07 10:28:24;;;;;;;;;;;22.10;99.90;;;;;;4970252;28;19926;-96
2021/06/07 10:30:52;;;;;;;;;;;22.00;99.90;;;;;;4985077;28;19926;-96
2021/06/07 10:33:27;;;;;;;;;;;22.10;99.90;;;;;;4993378;28;19921;-94
2021/06/07 10:36:19;;;;;;;;;;;22.50;99.90;;;;;;4998007;28;19935;-93
2021/06/07 10:39:17;;;;;;;;;;;23.10;99.90;;;;;;5010060;28;19979;-92
2021/06/07 10:41:48;;;;;;;;;;;23.30;98.80;;;;;;4985206;28;20372;-96
2021/06/07 10:44:42;;;;;;;;;;;23.40;98.20;;;;;;4985009;28;19926;-91
2021/06/07 10:47:31;;;;;;;;;;;23.50;98.80;;;;;;4969947;28;19941;-96
2021/06/07 10:50:09;;;;;;;;;;;23.10;99.90;;;;;;4982361;28;20429;-95
2021/06/07 10:52:51;;;;;;;;;;;23.00;98.90;;;;;;4980730;28;19926;-96
2021/06/07 10:55:21;;;;;;;;;;;22.80;99.90;;;;;;4983497;28;19926;-96
2021/06/07 10:57:53;;;;;;;;;;;22.40;99.90;;;;;;4987665;28;19948;-96
2021/06/07 11:00:24;;;;;;;;;;;22.20;99.90;;;;;;4991835;28;19926;-95
2021/06/07 11:03:21;;;;;;;;;;;21.80;99.90;;;;;;4972119;28;20033;-94
2021/06/07 11:05:56;;;;;;;;;;;21.10;99.90;;;;;;4979538;28;20375;-94
2021/06/07 11:08:26;;;;;;;;;;;20.20;99.90;;;;;;4979357;28;20036;-93
2021/06/07 11:11:05;;;;;;;;;;;19.50;99.90;;;;;;4979054;28;19933;-95
2021/06/07 11:13:32;;;;;;;;;;;19.10;99.90;;;;;;4980363;28;20302;-96
2021/06/07 11:16:01;;;;;;;;;;;18.80;99.90;;;;;;4979707;28;19941;-95
2021/06/07 11:18:32;;;;;;;;;;;18.70;99.90;;;;;;4979860;28;19926;-94
2021/06/07 11:21:09;;;;;;;;;;;18.40;99.90;;;;;;4979621;28;19926;-94
2021/06/07 11:34:18;;;;;;;;;;;18.30;99.90;;;;;;4939956;28;19945;-96
2021/06/07 11:52:14;;;;;;;;;;;19.70;99.90;;;;;;5011312;23;20017;-96
2021/06/07 13:05:05;;;;;;;;;;;22.40;99.90;;;;;;5032808;28;20335;-95
2021/06/07 13:07:35;;;;;;;;;;;22.20;99.90;;;;;;5027520;28;19967;-96
2021/06/07 15:40:58;;;;;;;;;;;23.30;99.90;;;;;;3742951;23;20213;-88
2021/06/07 15:43:26;;;;;;;;;;;24.00;99.90;;;;;;4999207;28;19926;-94
2021/06/07 15:45:54;;;;;;;;;;;24.90;99.90;;;;;;5013106;28;19925;-94
2021/06/07 15:48:22;;;;;;;;;;;25.40;98.20;;;;;;4999335;28;19932;-93
2021/06/07 15:53:54;;;;;;;;;;;26.30;96.50;;;;;;5121687;23;19949;-90
2021/06/07 15:56:21;;;;;;;;;;;26.60;96.10;;;;;;3159358;23;21249;-88
2021/06/07 16:03:17;;;;;;;;;;;27.00;91.40;;;;;;4977273;23;19972;-90
2021/06/07 16:06:06;;;;;;;;;;;26.20;92.30;;;;;;5022504;23;19930;-90
2021/06/07 16:14:49;;;;;;;;;;;24.50;97.90;;;;;;5222103;22;19919;-89
2021/06/07 16:17:18;;;;;;;;;;;23.90;99.90;;;;;;5030450;23;19914;-88
2021/06/07 16:58:43;;;;;;;;;;;21.10;99.90;;;;;;5278289;22;19938;-91
2021/06/07 17:07:05;;;;;;;;;;;21.10;99.90;;;;;;1228800;22;20182;-89
2021/06/07 17:15:36;;;;;;;;;;;20.80;99.90;;;;;;5071451;28;19931;-92
2021/06/07 17:24:38;;;;;;;;;;;20.30;99.90;;;;;;5028878;28;20140;-95
2021/06/07 17:27:05;;;;;;;;;;;20.10;99.90;;;;;;5004132;28;19948;-92
2021/06/07 17:29:33;;;;;;;;;;;20.00;99.90;;;;;;4997906;28;19926;-95
2021/06/07 17:32:00;;;;;;;;;;;19.90;99.90;;;;;;5023412;28;19933;-94
2021/06/07 17:34:29;;;;;;;;;;;20.00;99.90;;;;;;5006470;28;19930;-93
2021/06/07 17:36:57;;;;;;;;;;;20.20;99.90;;;;;;5000633;28;19937;-91
2021/06/07 17:39:25;;;;;;;;;;;20.30;99.90;;;;;;5000518;28;19937;-89
2021/06/07 17:41:52;;;;;;;;;;;20.50;99.90;;;;;;4996883;28;19952;-95
2021/06/07 17:44:20;;;;;;;;;;;20.50;99.90;;;;;;4999487;28;20492;-94
2021/06/07 17:46:47;;;;;;;;;;;20.50;99.90;;;;;;4997760;28;19926;-91
2021/06/07 17:49:14;;;;;;;;;;;20.40;99.90;;;;;;4998301;28;19933;-93
2021/06/07 17:51:47;;;;;;;;;;;20.20;99.90;;;;;;4988927;28;19915;-92
2021/06/07 17:54:15;;;;;;;;;;;20.00;99.90;;;;;;4927233;29;19927;-95
2021/06/07 17:56:42;;;;;;;;;;;19.90;99.90;;;;;;4987824;28;20001;-96
2021/06/07 17:59:09;;;;;;;;;;;19.70;99.90;;;;;;4987259;28;19985;-95
2021/06/07 18:01:41;;;;;;;;;;;19.40;99.90;;;;;;4928569;28;19934;-91
2021/06/07 18:04:08;;;;;;;;;;;19.20;99.90;;;;;;4982435;28;19933;-96
